TimeEDT,TemperatureF,Dew PointF,Humidity,Sea Level PressureIn,VisibilityMPH,Wind Direction,Wind SpeedMPH,Gust SpeedMPH,PrecipitationIn,Events,Conditions,WindDirDegrees,DateUTC
12:14 AM,64.4,54.0,69,29.97,10.0,South,10.4,-,N/A,,Clear,170,2013-09-29 04:14:00
12:34 AM,65.1,53.6,66,29.96,10.0,South,10.4,-,N/A,,Clear,170,2013-09-29 04:34:00
12:54 AM,66.0,53.1,63,29.95,10.0,South,10.4,16.1,N/A,,Scattered Clouds,170,2013-09-29 04:54:00
1:14 AM,67.1,52.7,60,29.95,10.0,South,10.4,-,N/A,,Mostly Cloudy,180,2013-09-29 05:14:00
1:34 AM,67.1,52.7,60,29.95,10.0,South,10.4,-,N/A,,Overcast,180,2013-09-29 05:34:00
1:54 AM,67.1,52.7,60,29.94,10.0,South,10.4,-,N/A,,Mostly Cloudy,180,2013-09-29 05:54:00
2:14 AM,67.3,52.7,59,29.94,10.0,South,11.5,-,N/A,,Overcast,190,2013-09-29 06:14:00
2:34 AM,67.5,53.1,60,29.93,10.0,South,10.4,-,N/A,,Overcast,180,2013-09-29 06:34:00
2:54 AM,67.5,53.2,60,29.93,10.0,South,10.4,-,N/A,,Overcast,190,2013-09-29 06:54:00
3:14 AM,67.5,53.6,61,29.93,10.0,South,10.4,-,N/A,,Overcast,190,2013-09-29 07:14:00
3:34 AM,67.8,54.1,62,29.92,10.0,South,9.2,-,N/A,,Overcast,190,2013-09-29 07:34:00
3:54 AM,68.0,54.5,62,29.92,10.0,SW,6.9,-,N/A,,Overcast,220,2013-09-29 07:54:00
4:14 AM,68.0,54.7,62,29.91,10.0,SSW,9.2,-,N/A,,Overcast,200,2013-09-29 08:14:00
4:34 AM,68.0,55.0,63,29.91,10.0,SSW,8.1,-,N/A,,Overcast,210,2013-09-29 08:34:00
4:54 AM,68.2,55.4,64,29.92,10.0,SW,9.2,-,N/A,,Overcast,220,2013-09-29 08:54:00
5:14 AM,68.4,55.8,64,29.92,10.0,SW,11.5,-,N/A,,Overcast,230,2013-09-29 09:14:00
5:34 AM,68.4,56.3,65,29.92,10.0,WSW,8.1,-,N/A,,Overcast,240,2013-09-29 09:34:00
5:54 AM,66.7,59.5,78,29.92,10.0,WSW,12.7,-,N/A,Rain,Light Rain,250,2013-09-29 09:54:00
6:14 AM,64.2,61.7,91,29.93,5.0,WSW,9.2,-,0.06,Rain,Heavy Rain,240,2013-09-29 10:14:00
6:34 AM,63.5,62.1,95,29.93,5.0,WSW,6.9,-,0.11,Rain,Rain,240,2013-09-29 10:34:00
6:54 AM,63.5,62.6,97,29.93,5.0,WSW,5.8,-,0.16,Rain,Rain,240,2013-09-29 10:54:00
7:14 AM,63.3,62.4,97,29.94,5.0,WNW,12.7,17.3,0.04,Rain,Rain,290,2013-09-29 11:14:00
7:34 AM,60.6,59.2,95,29.96,10.0,WNW,15.0,-,0.05,Rain,Light Rain,300,2013-09-29 11:34:00
7:54 AM,59.4,57.9,95,29.97,10.0,NW,10.4,17.3,0.05,Rain,Light Rain,310,2013-09-29 11:54:00
8:14 AM,59.0,57.4,94,29.97,10.0,NW,8.1,-,N/A,Rain,Light Rain,310,2013-09-29 12:14:00
8:34 AM,59.0,57.6,95,29.97,10.0,NW,8.1,-,N/A,,Overcast,310,2013-09-29 12:34:00
8:54 AM,58.8,57.6,96,29.98,10.0,WNW,10.4,-,N/A,,Overcast,300,2013-09-29 12:54:00
9:14 AM,58.1,57.0,96,29.99,7.0,NW,6.9,-,N/A,,Overcast,310,2013-09-29 13:14:00
9:34 AM,57.9,56.7,96,29.99,10.0,NW,5.8,-,N/A,,Overcast,320,2013-09-29 13:34:00
9:54 AM,57.7,56.5,96,29.99,7.0,NNW,6.9,-,N/A,,Overcast,330,2013-09-29 13:54:00
10:14 AM,58.3,56.5,94,30.00,10.0,North,5.8,-,N/A,,Overcast,350,2013-09-29 14:14:00
10:34 AM,60.3,57.0,89,30.01,10.0,North,5.8,-,N/A,,Overcast,360,2013-09-29 14:34:00
10:54 AM,60.1,56.1,87,30.01,10.0,North,8.1,-,N/A,,Overcast,350,2013-09-29 14:54:00
11:14 AM,60.1,55.8,86,30.01,10.0,NNW,3.5,-,N/A,,Overcast,340,2013-09-29 15:14:00
11:34 AM,60.8,55.4,82,30.01,10.0,NNE,6.9,-,N/A,,Overcast,20,2013-09-29 15:34:00
11:54 AM,61.3,54.5,78,30.01,10.0,North,6.9,-,N/A,,Overcast,350,2013-09-29 15:54:00
12:14 PM,62.1,53.6,74,30.02,10.0,North,4.6,-,N/A,,Overcast,360,2013-09-29 16:14:00
12:34 PM,63.0,53.6,71,30.02,10.0,North,9.2,-,N/A,,Overcast,350,2013-09-29 16:34:00
12:54 PM,63.1,53.2,70,30.01,10.0,North,4.6,-,N/A,,Mostly Cloudy,10,2013-09-29 16:54:00
1:14 PM,64.8,52.0,63,30.01,10.0,North,6.9,-,N/A,,Scattered Clouds,10,2013-09-29 17:14:00
1:34 PM,65.8,51.6,60,30.02,10.0,NW,6.9,-,N/A,,Mostly Cloudy,310,2013-09-29 17:34:00
1:54 PM,66.7,51.6,58,30.01,10.0,North,5.8,-,N/A,,Mostly Cloudy,360,2013-09-29 17:54:00
2:14 PM,66.0,50.9,58,30.00,10.0,NNW,8.1,-,N/A,,Mostly Cloudy,340,2013-09-29 18:14:00
2:34 PM,66.9,51.4,57,29.99,10.0,Calm,Calm,-,N/A,,Mostly Cloudy,0,2013-09-29 18:34:00
2:54 PM,65.7,51.1,59,29.99,10.0,NNW,6.9,-,N/A,,Mostly Cloudy,340,2013-09-29 18:54:00
3:14 PM,67.1,50.4,55,29.99,10.0,NNW,4.6,-,N/A,,Scattered Clouds,330,2013-09-29 19:14:00
3:34 PM,66.9,51.1,57,29.99,10.0,North,4.6,-,N/A,,Scattered Clouds,10,2013-09-29 19:34:00
3:54 PM,66.2,50.4,57,29.99,10.0,NNW,6.9,-,N/A,,Scattered Clouds,330,2013-09-29 19:54:00
4:14 PM,68.0,49.8,52,29.99,10.0,North,3.5,-,N/A,,Scattered Clouds,350,2013-09-29 20:14:00
4:34 PM,67.3,49.1,52,29.98,10.0,North,5.8,-,N/A,,Scattered Clouds,360,2013-09-29 20:34:00
4:54 PM,67.8,50.0,53,29.98,10.0,North,4.6,-,N/A,,Clear,360,2013-09-29 20:54:00
5:14 PM,67.5,49.1,52,29.98,10.0,NNE,6.9,-,N/A,,Scattered Clouds,20,2013-09-29 21:14:00
5:34 PM,67.8,49.3,51,29.98,10.0,NE,5.8,-,N/A,,Scattered Clouds,40,2013-09-29 21:34:00
5:54 PM,67.6,48.9,51,29.98,10.0,North,4.6,-,N/A,,Scattered Clouds,10,2013-09-29 21:54:00
6:14 PM,67.3,48.4,51,29.98,10.0,North,4.6,-,N/A,,Scattered Clouds,350,2013-09-29 22:14:00
6:34 PM,67.1,48.7,52,29.98,10.0,North,3.5,-,N/A,,Clear,10,2013-09-29 22:34:00
6:54 PM,65.8,50.2,57,29.98,10.0,Calm,Calm,-,N/A,,Clear,0,2013-09-29 22:54:00
7:14 PM,64.6,50.2,60,29.98,10.0,Calm,Calm,-,N/A,,Clear,0,2013-09-29 23:14:00
7:34 PM,63.0,50.2,63,29.98,10.0,Calm,Calm,-,N/A,,Clear,0,2013-09-29 23:34:00
7:54 PM,59.0,52.0,78,29.98,10.0,Calm,Calm,-,N/A,,Clear,0,2013-09-29 23:54:00
8:14 PM,60.6,50.5,69,29.99,10.0,Calm,Calm,-,N/A,,Scattered Clouds,0,2013-09-30 00:14:00
8:34 PM,58.6,50.5,74,29.99,10.0,Calm,Calm,-,N/A,,Mostly Cloudy,0,2013-09-30 00:34:00
8:54 PM,58.5,50.9,76,29.99,10.0,Calm,Calm,-,N/A,,Overcast,0,2013-09-30 00:54:00
9:14 PM,56.8,50.5,79,29.99,10.0,NNE,3.5,-,N/A,,Scattered Clouds,20,2013-09-30 01:14:00
9:34 PM,57.4,50.4,77,29.99,10.0,North,3.5,-,N/A,,Scattered Clouds,360,2013-09-30 01:34:00
9:54 PM,55.6,49.3,79,29.99,10.0,North,3.5,-,N/A,,Scattered Clouds,10,2013-09-30 01:54:00
10:14 PM,55.0,48.9,80,30.00,10.0,East,8.1,-,N/A,,Mostly Cloudy,90,2013-09-30 02:14:00
10:34 PM,55.8,49.1,78,29.99,10.0,NE,4.6,-,N/A,,Overcast,50,2013-09-30 02:34:00
10:54 PM,55.0,48.9,80,30.00,10.0,ENE,4.6,-,N/A,,Mostly Cloudy,70,2013-09-30 02:54:00
11:14 PM,54.9,48.4,79,30.00,10.0,East,4.6,-,N/A,,Scattered Clouds,80,2013-09-30 03:14:00
11:34 PM,52.7,47.8,84,30.00,10.0,East,4.6,-,N/A,,Clear,100,2013-09-30 03:34:00
11:54 PM,52.9,48.9,86,30.00,10.0,Calm,Calm,-,N/A,,Clear,0,2013-09-30 03:54:00